Aeroporto :







RITROVATECI SU...

 
LOGIN :

Iscrizione | Disclaimer

   EN    FR    IT 

 









Sommario :    VFR   VFR Marginale   IFR   IFR Intensivo   IFR Molto Intensivo
Visibilità : 
Base nubi : 
>= 8 km
>= 3000ft
5 / 8 km
1000 / 3000 ft
1500m / 5 km
500 / 1000 ft
800 / 1500m
200 / 500 ft
< 800m
< 200 ft
Simboli :   Temporali  Nebbia  Neve Forte  Precipitazioni Forti  Vento > 20 kt






- Altitudine del aeroporto : 70 ft


KIWI - Wiscasset

ULTIMO METAR :
  • 270753Z AUTO 00000KT 3/4SM BR VV002 03/03 A3001 RMK AO2 SLP161 T00280028

METARs OBSOLETI :
  • 270739Z AUTO 00000KT 1SM BR VV003 03/03 A3001 RMK AO2 T00280028
  • 270702Z AUTO 00000KT 2SM BR OVC002 03/03 A3000 RMK AO2 T00280028
  • 270634Z AUTO 00000KT 1 1/4SM BR OVC002 03/03 A2999 RMK AO2 T00280028

TAF N/A
FIR KZBW / America del Nord



MetMap, La meteo Aeronautica in un colpo d'occhio ! - Copyright ORBIFLY Dicembre 2007 - Disclaimer

ORBIFLY MET'MAP TEAM :

Programmazione e sviluppo : Alexandra Zaïnal
Concezione : Baudouin d'Aumeries
Aiuto per la programmazione : Marc-Olivier Méhu
Supporto tecnico e logistico : Manuel Goepfert
Aiuto per la traduzione : Arnaldo La Scala

Contatto : metmap@orbifly.com




FONTI E CREDITI :

   NOAA